»·PEaware :: N1SC KPRC-KTUS

N1SC :: KPRC-KTUS

FLIGHT INFORMATION

Flight Status: Arrived
Operator: Privately registered:
United States
More flights under this callsign
Pilot: Anonymous 10181 (10181)
Aircraft: CESSNA 510 CITATION MUSTANG
(C510)
More flights by this aircraft type
Origin: KPRC Love
United States
Destination: KTUS Tucson Intl
United States
More flights between these airports :: More routes between these airports
Route: PRC3 DRK J11 PXR DINGO5
File this flight plan on PilotEdge
Remarks: Happy Tuesday!
Altitude:
(Current/Filed)
25,000ft
Speed:
(Current/Filed)
300kts
Departed: 13-Jun-23 10:22 AM
Arrived: 13-Jun-23 11:07 AM
Distance/Time
Traveled:
169nm/0:45
Distance/Time
To Go:
Arrived

Flight Plot

Page will automatically refresh every two minutes.

Flight plan parsing failed; only flown route is shown


Map Options




Map Legend


Flown Route
Filed Route
Departure Airport
Arrival Airport
Navaid (VOR, NDB)
Fix

Horizontal Profiles

Position Reports

Time Latitude Longitude Heading Altitude Ground
Speed
13-Jun-23 09:45 34.653906 -112.422578 131 5008ft 0kts
13-Jun-23 09:46 34.653906 -112.422578 131 5008ft 0kts
13-Jun-23 09:47 34.653906 -112.422578 131 5008ft 0kts
13-Jun-23 09:48 34.653906 -112.422578 131 5008ft 0kts
13-Jun-23 09:49 34.653906 -112.422578 131 5008ft 0kts
13-Jun-23 09:50 34.653906 -112.422578 131 5008ft 0kts
13-Jun-23 09:51 34.653906 -112.422578 131 5008ft 0kts
13-Jun-23 09:52 34.653906 -112.422578 131 5008ft 0kts
13-Jun-23 09:53 34.653906 -112.422578 131 5008ft 0kts
13-Jun-23 09:54 34.653906 -112.422578 131 5008ft 0kts
13-Jun-23 09:55 34.653906 -112.422578 131 5008ft 0kts
13-Jun-23 09:56 34.653906 -112.422578 131 5008ft 0kts
13-Jun-23 09:57 34.653906 -112.422578 131 5008ft 0kts
13-Jun-23 09:58 34.653906 -112.422578 131 5008ft 0kts
13-Jun-23 09:59 34.653906 -112.422578 131 5008ft 0kts
13-Jun-23 10:00 34.653906 -112.422578 131 5008ft 0kts
13-Jun-23 10:01 34.653906 -112.422578 131 5008ft 0kts
13-Jun-23 10:02 34.653906 -112.422578 131 5008ft 0kts
13-Jun-23 10:03 34.653906 -112.422578 131 5008ft 0kts
13-Jun-23 10:04 34.653906 -112.422578 131 5008ft 0kts
13-Jun-23 10:05 34.653906 -112.422578 131 5008ft 0kts
13-Jun-23 10:06 34.653906 -112.422578 131 5008ft 0kts
13-Jun-23 10:07 34.653906 -112.422578 131 5008ft 0kts
13-Jun-23 10:08 34.653906 -112.422578 131 5008ft 0kts
13-Jun-23 10:09 34.653906 -112.422578 131 5017ft 0kts
13-Jun-23 10:10 34.653906 -112.422578 131 5017ft 0kts
13-Jun-23 10:11 34.654757 -112.421220 45 5004ft 14kts
13-Jun-23 10:12 34.655139 -112.420717 50 5000ft 0kts
13-Jun-23 10:13 34.655139 -112.420717 50 5000ft 0kts
13-Jun-23 10:14 34.655139 -112.420717 50 5000ft 0kts
13-Jun-23 10:15 34.655171 -112.420574 97 4999ft 4kts
13-Jun-23 10:16 34.657660 -112.417572 41 4987ft 22kts
13-Jun-23 10:17 34.662096 -112.413073 12 4958ft 12kts
13-Jun-23 10:18 34.662704 -112.412150 117 4954ft 0kts
13-Jun-23 10:19 34.662697 -112.412136 124 4957ft 0kts
13-Jun-23 10:20 34.662016 -112.411514 223 4960ft 0kts
13-Jun-23 10:21 34.644493 -112.430341 223 5785ft 160kts
13-Jun-23 10:22 34.621928 -112.477965 299 9041ft 201kts
13-Jun-23 10:23 34.669254 -112.476106 30 12351ft 198kts
13-Jun-23 10:24 34.681925 -112.429074 161 14175ft 229kts
13-Jun-23 10:25 34.621608 -112.444192 186 16292ft 223kts
13-Jun-23 10:26 34.560005 -112.422251 166 18309ft 237kts
13-Jun-23 10:27 34.496316 -112.396351 167 20066ft 244kts
13-Jun-23 10:28 34.430921 -112.369820 168 21880ft 252kts
13-Jun-23 10:29 34.363497 -112.342542 169 23663ft 259kts
13-Jun-23 10:30 34.294978 -112.314813 171 24968ft 266kts
13-Jun-23 10:31 34.220300 -112.284697 170 24972ft 296kts
13-Jun-23 10:32 34.140224 -112.252392 169 24977ft 307kts
13-Jun-23 10:33 34.058334 -112.219474 170 24973ft 312kts
13-Jun-23 10:34 33.975583 -112.186274 170 24982ft 313kts
13-Jun-23 10:35 33.892828 -112.153119 170 25005ft 314kts
13-Jun-23 10:36 33.810050 -112.120029 171 25024ft 314kts
13-Jun-23 10:37 33.727318 -112.087037 171 25026ft 313kts
13-Jun-23 10:38 33.644744 -112.054173 172 25020ft 312kts
13-Jun-23 10:39 33.562394 -112.021458 172 25020ft 310kts
13-Jun-23 10:40 33.481002 -111.989208 172 24994ft 309kts
13-Jun-23 10:41 33.399254 -111.965702 189 24992ft 291kts
13-Jun-23 10:42 33.318003 -111.957159 186 24983ft 293kts
13-Jun-23 10:43 33.236556 -111.948041 185 25003ft 293kts
13-Jun-23 10:44 33.154844 -111.938934 185 24634ft 304kts
13-Jun-23 10:45 33.067396 -111.929121 184 23254ft 330kts
13-Jun-23 10:46 32.973614 -111.918561 182 21227ft 343kts
13-Jun-23 10:47 32.880821 -111.902609 161 19360ft 338kts
13-Jun-23 10:48 32.803093 -111.839790 151 17525ft 334kts
13-Jun-23 10:49 32.727343 -111.777442 149 15632ft 329kts
13-Jun-23 10:50 32.653139 -111.716231 148 13954ft 321kts
13-Jun-23 10:51 32.583814 -111.659131 147 12254ft 291kts
13-Jun-23 10:52 32.527575 -111.595291 125 11016ft 268kts
13-Jun-23 10:53 32.487795 -111.528716 109 11029ft 234kts
13-Jun-23 10:54 32.472603 -111.454117 107 10542ft 252kts
13-Jun-23 10:55 32.451670 -111.371412 107 9169ft 259kts
13-Jun-23 10:56 32.424038 -111.298766 147 8337ft 223kts
13-Jun-23 10:57 32.381959 -111.252776 136 8130ft 213kts
13-Jun-23 10:58 32.338926 -111.201850 135 6971ft 217kts
13-Jun-23 10:59 32.297604 -111.153046 135 6053ft 193kts
13-Jun-23 11:00 32.263659 -111.112963 135 5989ft 166kts
13-Jun-23 11:01 32.228263 -111.071259 135 5446ft 185kts
13-Jun-23 11:02 32.190224 -111.026500 135 4487ft 195kts
13-Jun-23 11:03 32.158861 -110.989494 135 3664ft 122kts
13-Jun-23 11:04 32.136899 -110.963812 134 3042ft 105kts
13-Jun-23 11:05 32.116984 -110.940426 135 2583ft 77kts
13-Jun-23 11:06 32.115129 -110.936122 18 2600ft 4kts
13-Jun-23 11:07 32.115655 -110.936387 314 2594ft 12kts

Navigation Log

Ident Type
Flight plan parsing failed, navigation log unavailable